createdAt,value
2018-03-03T00:00:54.211Z,61.55
2018-03-03T00:01:54.177Z,61.46
2018-03-03T00:02:54.141Z,61.65
2018-03-03T00:03:54.109Z,61.55
2018-03-03T00:04:54.075Z,61.65
2018-03-03T00:05:53.790Z,61.55
2018-03-03T00:06:54.003Z,61.27
2018-03-03T00:07:53.970Z,61.65
2018-03-03T00:08:53.940Z,61.46
2018-03-03T00:09:53.903Z,61.18
2018-03-03T00:10:53.867Z,61.27
2018-03-03T00:11:53.835Z,61.27
2018-03-03T00:12:53.900Z,61.36
2018-03-03T00:13:53.766Z,61.36
2018-03-03T00:14:53.729Z,61.46
2018-03-03T00:15:53.704Z,61.55
2018-03-03T00:16:53.673Z,61.46
2018-03-03T00:17:53.625Z,61.27
2018-03-03T00:18:53.595Z,61.27
2018-03-03T00:19:53.563Z,61.27
2018-03-03T00:20:53.527Z,61.36
2018-03-03T00:21:53.498Z,61.27
2018-03-03T00:22:53.458Z,61.65
2018-03-03T00:23:53.425Z,61.55
2018-03-03T00:24:53.390Z,61.65
2018-03-03T00:25:53.360Z,61.55
2018-03-03T00:26:53.320Z,61.65
2018-03-03T00:27:53.287Z,61.36
2018-03-03T00:28:53.253Z,61.08
2018-03-03T00:29:53.220Z,61.46
2018-03-03T00:30:53.188Z,61.93
2018-03-03T00:31:53.151Z,61.93
2018-03-03T00:32:53.117Z,61.93
2018-03-03T00:33:53.086Z,62.4
2018-03-03T00:34:53.051Z,62.12
2018-03-03T00:35:52.765Z,62.02
2018-03-03T00:36:52.733Z,62.5
2018-03-03T00:37:52.943Z,62.4
2018-03-03T00:38:52.910Z,62.21
2018-03-03T00:39:52.879Z,61.93
2018-03-03T00:40:52.845Z,62.4
2018-03-03T00:41:52.810Z,62.69
2018-03-03T00:42:52.783Z,62.5
2018-03-03T00:43:52.752Z,63.07
2018-03-03T00:44:52.710Z,62.69
2018-03-03T00:45:52.670Z,63.16
2018-03-03T00:46:52.635Z,62.88
2018-03-03T00:47:52.606Z,62.97
2018-03-03T00:48:52.571Z,63.26
2018-03-03T00:49:52.535Z,63.07
2018-03-03T00:50:52.502Z,62.97
2018-03-03T00:51:52.468Z,63.16
2018-03-03T00:52:52.433Z,63.26
2018-03-03T00:53:52.403Z,63.26
2018-03-03T00:54:52.369Z,63.07
2018-03-03T00:55:52.083Z,63.92
2018-03-03T00:56:52.068Z,63.16
2018-03-03T00:57:52.262Z,63.35
2018-03-03T00:58:52.239Z,63.26
2018-03-03T00:59:52.196Z,63.16
2018-03-03T01:00:52.155Z,63.26
2018-03-03T01:01:52.126Z,63.92
2018-03-03T01:02:52.093Z,63.73
2018-03-03T01:03:52.056Z,63.82
2018-03-03T01:04:52.018Z,63.92
2018-03-03T01:05:51.986Z,64.2
2018-03-03T01:06:51.953Z,64.48
2018-03-03T01:07:51.915Z,64.76
2018-03-03T01:08:51.635Z,64.95
2018-03-03T01:09:51.849Z,65.33
2018-03-03T01:10:51.818Z,65.71
2018-03-03T01:11:51.930Z,65.8
2018-03-03T01:12:51.745Z,66.28
2018-03-03T01:13:51.710Z,66.37
2018-03-03T01:14:51.683Z,66.18
2018-03-03T01:15:51.395Z,66.94
2018-03-03T01:16:51.609Z,67.69
2018-03-03T01:17:51.572Z,67.88
2018-03-03T01:18:51.537Z,68.26
2018-03-03T01:19:51.507Z,68.07
2018-03-03T01:20:51.222Z,68.63
2018-03-03T01:21:51.437Z,69.01
2018-03-03T01:22:51.402Z,69.3
2018-03-03T01:23:51.366Z,69.01
2018-03-03T01:24:51.330Z,69.67
2018-03-03T01:25:51.294Z,69.67
2018-03-03T01:26:51.014Z,70.05
2018-03-03T01:27:51.229Z,70.34
2018-03-03T01:28:51.196Z,69.96
2018-03-03T01:29:51.171Z,71
2018-03-03T01:30:51.124Z,71
2018-03-03T01:31:51.087Z,71.94
2018-03-03T01:32:51.057Z,72.03
2018-03-03T01:33:51.020Z,72.03
2018-03-03T01:34:50.988Z,72.69
2018-03-03T01:35:50.952Z,73.22
2018-03-03T01:36:50.917Z,73.55
2018-03-03T01:37:50.882Z,73.69
2018-03-03T01:38:50.597Z,73.79
2018-03-03T01:39:50.572Z,74.3
2018-03-03T01:40:50.777Z,74.83
2018-03-03T01:41:50.743Z,75.11
2018-03-03T01:42:50.714Z,75.3
2018-03-03T01:43:50.675Z,75.49
2018-03-03T01:44:50.641Z,75.3
2018-03-03T01:45:50.601Z,75.87
2018-03-03T01:46:50.569Z,75.96
2018-03-03T01:47:50.533Z,76.15
2018-03-03T01:48:50.501Z,75.96
2018-03-03T01:49:50.458Z,76.62
2018-03-03T01:50:50.427Z,76.62
2018-03-03T01:51:50.398Z,77.09
2018-03-03T01:52:50.359Z,77
2018-03-03T01:53:50.325Z,77.56
2018-03-03T01:54:50.287Z,77.47
2018-03-03T01:55:50.254Z,77.85
2018-03-03T01:56:50.218Z,77.94
2018-03-03T01:57:49.932Z,77.94
2018-03-03T01:58:50.147Z,78.23
2018-03-03T01:59:50.113Z,78.7
2018-03-03T02:00:50.077Z,78.23
2018-03-03T02:01:50.040Z,78.42
2018-03-03T02:02:50.016Z,78.7
2018-03-03T02:03:49.970Z,78.79
2018-03-03T02:04:49.936Z,78.79
2018-03-03T02:05:49.899Z,78.79
2018-03-03T02:06:49.866Z,78.89
2018-03-03T02:07:49.829Z,79.08
2018-03-03T02:08:49.798Z,78.89
2018-03-03T02:09:49.759Z,79.46
2018-03-03T02:10:49.723Z,79.27
2018-03-03T02:11:49.442Z,79.74
2018-03-03T02:12:49.652Z,79.27
2018-03-03T02:13:49.372Z,79.36
2018-03-03T02:14:49.582Z,79.27
2018-03-03T02:15:49.549Z,79.08
2018-03-03T02:16:49.515Z,79.36
2018-03-03T02:17:49.476Z,80.21
2018-03-03T02:18:49.443Z,79.74
2018-03-03T02:19:49.410Z,79.64
2018-03-03T02:20:49.370Z,80.11
2018-03-03T02:21:49.336Z,80.58
2018-03-03T02:22:49.304Z,80.4
2018-03-03T02:23:49.268Z,80.49
2018-03-03T02:24:49.230Z,80.77
2018-03-03T02:25:49.198Z,80.77
2018-03-03T02:26:49.164Z,80.77
2018-03-03T02:27:49.128Z,81.34
2018-03-03T02:28:49.092Z,81.24
2018-03-03T02:29:49.057Z,81.53
2018-03-03T02:30:49.045Z,81.53
2018-03-03T02:31:48.989Z,82.1
2018-03-03T02:32:48.952Z,81.81
2018-03-03T02:33:48.921Z,82.19
2018-03-03T02:34:48.884Z,82
2018-03-03T02:35:48.859Z,82.57
2018-03-03T02:36:48.811Z,82.66
2018-03-03T02:37:48.777Z,82.38
2018-03-03T02:38:48.739Z,82.47
2018-03-03T02:39:48.705Z,82.47
2018-03-03T02:40:48.670Z,82.28
2018-03-03T02:41:48.640Z,82.19
2018-03-03T02:42:48.600Z,82.38
2018-03-03T02:43:48.569Z,82.47
2018-03-03T02:44:48.532Z,82.85
2018-03-03T02:45:48.274Z,82.95
2018-03-03T02:46:48.458Z,83.04
2018-03-03T02:47:48.429Z,82.95
2018-03-03T02:48:48.388Z,82.95
2018-03-03T02:49:48.103Z,82.66
2018-03-03T02:50:48.313Z,82.76
2018-03-03T02:51:48.280Z,83.42
2018-03-03T02:52:48.248Z,83.23
2018-03-03T02:53:48.214Z,83.14
2018-03-03T02:54:48.173Z,83.23
2018-03-03T02:55:47.898Z,82.66
2018-03-03T02:56:48.108Z,83.51
2018-03-03T02:57:48.073Z,83.51
2018-03-03T02:58:48.032Z,83.8
2018-03-03T02:59:48.004Z,83.98
2018-03-03T03:00:47.969Z,84.17
2018-03-03T03:01:47.932Z,84.27
2018-03-03T03:02:47.894Z,84.17
2018-03-03T03:03:47.863Z,85.02
2018-03-03T03:04:47.826Z,85.21
2018-03-03T03:05:47.788Z,84.92
2018-03-03T03:06:47.502Z,85.02
2018-03-03T03:07:47.718Z,85.4
2018-03-03T03:08:47.679Z,85.68
2018-03-03T03:09:47.645Z,85.77
2018-03-03T03:10:47.614Z,85.49
2018-03-03T03:11:47.573Z,85.4
2018-03-03T03:12:47.539Z,85.87
2018-03-03T03:13:47.643Z,85.87
2018-03-03T03:14:47.221Z,85.87
2018-03-03T03:15:47.449Z,85.96
2018-03-03T03:16:47.396Z,86.63
2018-03-03T03:17:47.366Z,86.53
2018-03-03T03:18:47.330Z,86.44
2018-03-03T03:19:47.044Z,86.25
2018-03-03T03:20:47.256Z,86.44
2018-03-03T03:21:47.221Z,87.1
2018-03-03T03:22:47.187Z,86.91
2018-03-03T03:23:47.151Z,87.19
2018-03-03T03:24:46.867Z,87.1
2018-03-03T03:25:47.083Z,87.19
2018-03-03T03:26:47.045Z,87.19
2018-03-03T03:27:47.010Z,87.66
2018-03-03T03:28:46.978Z,87.76
2018-03-03T03:29:46.935Z,88.04
2018-03-03T03:30:46.907Z,87.48
2018-03-03T03:31:46.865Z,88.23
2018-03-03T03:32:46.833Z,87.85
2018-03-03T03:33:46.546Z,87.76
2018-03-03T03:34:46.758Z,88.23
2018-03-03T03:35:46.729Z,88.23
2018-03-03T03:36:46.687Z,88.13
2018-03-03T03:37:46.651Z,88.51
2018-03-03T03:38:46.619Z,88.89
2018-03-03T03:39:46.579Z,88.7
2018-03-03T03:40:46.546Z,89.17
2018-03-03T03:41:46.511Z,88.98
2018-03-03T03:42:46.474Z,88.89
2018-03-03T03:43:46.441Z,88.6
2018-03-03T03:44:46.404Z,88.7
2018-03-03T03:45:46.369Z,88.98
2018-03-03T03:46:46.331Z,89.08
2018-03-03T03:47:46.298Z,88.89
2018-03-03T03:48:46.275Z,89.17
2018-03-03T03:49:46.226Z,89.08
2018-03-03T03:50:46.192Z,89.17
2018-03-03T03:51:46.156Z,89.27
2018-03-03T03:52:46.118Z,89.17
2018-03-03T03:53:45.837Z,89.45
2018-03-03T03:54:46.045Z,89.45
2018-03-03T03:55:46.012Z,89.74
2018-03-03T03:56:45.979Z,89.83
2018-03-03T03:57:45.946Z,89.55
2018-03-03T03:58:45.911Z,90.02
2018-03-03T03:59:45.875Z,90.4
2018-03-03T04:00:45.832Z,90.21
2018-03-03T04:01:45.799Z,90.12
2018-03-03T04:02:45.765Z,90.02
2018-03-03T04:03:45.728Z,90.31
2018-03-03T04:04:46.835Z,90.68
2018-03-03T04:05:45.660Z,90.4
2018-03-03T04:06:45.622Z,90.68
2018-03-03T04:07:45.338Z,90.59
2018-03-03T04:08:45.552Z,90.78
2018-03-03T04:09:45.517Z,91.35
2018-03-03T04:10:45.480Z,91.06
2018-03-03T04:11:45.927Z,91.25
2018-03-03T04:12:45.406Z,91.25
2018-03-03T04:13:45.372Z,91.44
2018-03-03T04:14:45.344Z,91.82
2018-03-03T04:15:45.299Z,91.82
2018-03-03T04:16:45.269Z,92.38
2018-03-03T04:17:45.232Z,92.1
2018-03-03T04:18:45.193Z,92
2018-03-03T04:19:45.161Z,92.1
2018-03-03T04:20:45.122Z,92.29
2018-03-03T04:21:45.095Z,92.19
2018-03-03T04:22:45.053Z,92.38
2018-03-03T04:23:45.016Z,92.19
2018-03-03T04:24:44.732Z,91.91
2018-03-03T04:25:44.949Z,92.47
2018-03-03T04:26:44.910Z,92.38
2018-03-03T04:27:44.873Z,92.38
2018-03-03T04:28:44.837Z,92.29
2018-03-03T04:29:44.810Z,92.38
2018-03-03T04:30:44.766Z,92.38
2018-03-03T04:31:44.729Z,92.85
2018-03-03T04:32:44.696Z,92.85
2018-03-03T04:33:44.660Z,93.04
2018-03-03T04:34:44.623Z,92.85
2018-03-03T04:35:44.590Z,92.66
2018-03-03T04:36:44.549Z,93.23
2018-03-03T04:37:44.517Z,93.23
2018-03-03T04:38:44.491Z,93.04
2018-03-03T04:39:44.196Z,93.13
2018-03-03T04:40:44.410Z,93.23
2018-03-03T04:41:44.127Z,93.32
2018-03-03T04:42:44.340Z,93.13
2018-03-03T04:43:44.303Z,93.8
2018-03-03T04:44:44.265Z,93.8
2018-03-03T04:45:44.232Z,93.61
2018-03-03T04:46:44.193Z,93.23
2018-03-03T04:47:44.161Z,93.61
2018-03-03T04:48:44.126Z,93.42
2018-03-03T04:49:44.090Z,93.99
2018-03-03T04:50:44.059Z,93.8
2018-03-03T04:51:44.016Z,93.61
2018-03-03T04:52:43.981Z,94.65
2018-03-03T04:53:43.946Z,94.55
2018-03-03T04:54:43.910Z,94.36
2018-03-03T04:55:43.874Z,94.36
2018-03-03T04:56:43.840Z,94.18
2018-03-03T04:57:43.800Z,94.55
2018-03-03T04:58:43.767Z,94.27
2018-03-03T04:59:43.736Z,94.27
2018-03-03T05:00:43.697Z,94.65
2018-03-03T05:01:43.672Z,94.46
2018-03-03T05:02:43.693Z,94.93
2018-03-03T05:03:43.590Z,95.03
2018-03-03T05:04:43.555Z,94.84
2018-03-03T05:05:43.517Z,94.46
2018-03-03T05:06:43.482Z,94.65
2018-03-03T05:07:43.201Z,94.65
2018-03-03T05:08:43.412Z,94.84
2018-03-03T05:09:43.374Z,94.65
2018-03-03T05:10:43.337Z,94.65
2018-03-03T05:11:43.309Z,94.65
2018-03-03T05:12:43.270Z,94.55
2018-03-03T05:13:43.239Z,94.93
2018-03-03T05:14:42.951Z,94.74
2018-03-03T05:15:43.162Z,94.93
2018-03-03T05:16:43.124Z,95.03
2018-03-03T05:17:43.086Z,95.03
2018-03-03T05:18:43.052Z,94.46
2018-03-03T05:19:43.022Z,94.46
2018-03-03T05:20:42.982Z,94.46
2018-03-03T05:21:42.948Z,94.65
2018-03-03T05:22:42.960Z,94.84
2018-03-03T05:23:42.875Z,93.99
2018-03-03T05:24:42.841Z,94.55
2018-03-03T05:25:42.809Z,94.27
2018-03-03T05:26:42.770Z,94.36
2018-03-03T05:27:42.485Z,94.55
2018-03-03T05:28:42.694Z,94.27
2018-03-03T05:29:42.664Z,94.08
2018-03-03T05:30:42.626Z,93.51
2018-03-03T05:31:42.589Z,93.51
2018-03-03T05:32:42.565Z,93.8
2018-03-03T05:33:42.520Z,93.89
2018-03-03T05:34:42.484Z,93.8
2018-03-03T05:35:42.198Z,93.8
2018-03-03T05:36:42.415Z,93.99
2018-03-03T05:37:42.378Z,93.99
2018-03-03T05:38:42.358Z,93.89
2018-03-03T05:39:42.308Z,93.99
2018-03-03T05:40:42.277Z,94.08
2018-03-03T05:41:41.988Z,93.23
2018-03-03T05:42:43.611Z,93.61
2018-03-03T05:43:42.166Z,93.7
2018-03-03T05:44:42.129Z,93.23
2018-03-03T05:45:42.092Z,93.32
2018-03-03T05:46:42.060Z,93.42
2018-03-03T05:47:42.023Z,93.7
2018-03-03T05:48:41.985Z,93.23
2018-03-03T05:49:41.948Z,92.85
2018-03-03T05:50:41.914Z,92.85
2018-03-03T05:51:41.888Z,92.66
2018-03-03T05:52:41.849Z,92.76
2018-03-03T05:53:41.920Z,92.76
2018-03-03T05:54:41.780Z,92.47
2018-03-03T05:55:41.742Z,92.66
2018-03-03T05:56:41.747Z,92.85
2018-03-03T05:57:41.417Z,92.76
2018-03-03T05:58:41.384Z,92.47
2018-03-03T05:59:41.592Z,92.19
2018-03-03T06:00:41.561Z,92
2018-03-03T06:01:41.527Z,92.19
2018-03-03T06:02:41.493Z,92
2018-03-03T06:03:41.455Z,92.1
2018-03-03T06:04:41.416Z,91.72
2018-03-03T06:05:41.387Z,91.44
2018-03-03T06:06:41.349Z,91.91
2018-03-03T06:07:41.323Z,91.72
2018-03-03T06:08:41.281Z,91.72
2018-03-03T06:09:41.239Z,91.63
2018-03-03T06:10:41.210Z,91.25
2018-03-03T06:11:41.173Z,91.35
2018-03-03T06:12:41.193Z,91.16
2018-03-03T06:13:40.855Z,91.25
2018-03-03T06:14:41.062Z,90.78
2018-03-03T06:15:41.035Z,90.78
2018-03-03T06:16:40.992Z,90.68
2018-03-03T06:17:40.959Z,90.78
2018-03-03T06:18:40.929Z,90.78
2018-03-03T06:19:40.888Z,90.5
2018-03-03T06:20:40.854Z,90.21
2018-03-03T06:21:40.818Z,90.21
2018-03-03T06:22:40.783Z,90.31
2018-03-03T06:23:40.751Z,90.02
2018-03-03T06:24:40.713Z,90.12
2018-03-03T06:25:40.428Z,89.93
2018-03-03T06:26:40.642Z,89.64
2018-03-03T06:27:40.606Z,89.45
2018-03-03T06:28:40.571Z,89.55
2018-03-03T06:29:40.539Z,89.45
2018-03-03T06:30:40.500Z,88.98
2018-03-03T06:31:40.461Z,89.27
2018-03-03T06:32:40.184Z,88.51
2018-03-03T06:33:40.392Z,88.6
2018-03-03T06:34:40.357Z,88.6
2018-03-03T06:35:40.325Z,88.32
2018-03-03T06:36:40.290Z,88.42
2018-03-03T06:37:40.006Z,88.13
2018-03-03T06:38:40.217Z,88.13
2018-03-03T06:39:40.186Z,88.6
2018-03-03T06:40:40.150Z,87.95
2018-03-03T06:41:40.113Z,87.85
2018-03-03T06:42:40.080Z,87.19
2018-03-03T06:43:39.795Z,87.29
2018-03-03T06:44:40.010Z,87.1
2018-03-03T06:45:39.971Z,87.1
2018-03-03T06:46:39.691Z,86.63
2018-03-03T06:47:39.901Z,86.53
2018-03-03T06:48:39.872Z,86.76
2018-03-03T06:49:39.585Z,86.44
2018-03-03T06:50:39.800Z,86.67
2018-03-03T06:51:39.765Z,86.19
2018-03-03T06:52:39.730Z,86.29
2018-03-03T06:53:39.693Z,85.44
2018-03-03T06:54:39.656Z,85.72
2018-03-03T06:55:39.624Z,85.25
2018-03-03T06:56:39.589Z,85.63
2018-03-03T06:57:39.556Z,84.69
2018-03-03T06:58:39.528Z,84.78
2018-03-03T06:59:39.491Z,84.59
2018-03-03T07:00:39.509Z,84.59
2018-03-03T07:01:39.420Z,84.69
2018-03-03T07:02:39.388Z,84.03
2018-03-03T07:03:39.345Z,84.41
2018-03-03T07:04:39.313Z,84.12
2018-03-03T07:05:39.277Z,83.93
2018-03-03T07:06:39.247Z,84.03
2018-03-03T07:07:39.208Z,83.74
2018-03-03T07:08:39.175Z,83.36
2018-03-03T07:09:39.136Z,83.46
2018-03-03T07:10:39.105Z,83.74
2018-03-03T07:11:39.071Z,83.46
2018-03-03T07:12:39.037Z,82.8
2018-03-03T07:13:39.003Z,83.27
2018-03-03T07:14:38.969Z,82.61
2018-03-03T07:15:39.251Z,82.7
2018-03-03T07:16:38.899Z,82.61
2018-03-03T07:17:38.867Z,82.89
2018-03-03T07:18:38.832Z,82.99
2018-03-03T07:19:38.802Z,82.51
2018-03-03T07:20:38.762Z,82.61
2018-03-03T07:21:38.732Z,82.14
2018-03-03T07:22:38.718Z,81.95
2018-03-03T07:23:38.412Z,81.95
2018-03-03T07:24:38.626Z,82.04
2018-03-03T07:25:38.593Z,82.04
2018-03-03T07:26:38.559Z,82.14
2018-03-03T07:27:38.526Z,82.04
2018-03-03T07:28:38.488Z,82.14
2018-03-03T07:29:38.461Z,82.51
2018-03-03T07:30:38.423Z,82.7
2018-03-03T07:31:38.387Z,82.8
2018-03-03T07:32:38.351Z,82.32
2018-03-03T07:33:38.322Z,82.32
2018-03-03T07:34:38.283Z,82.14
2018-03-03T07:35:38.325Z,82.04
2018-03-03T07:36:38.222Z,82.32
2018-03-03T07:37:38.181Z,82.23
2018-03-03T07:38:38.147Z,82.32
2018-03-03T07:39:38.114Z,82.32
2018-03-03T07:40:38.079Z,82.14
2018-03-03T07:41:38.054Z,82.14
2018-03-03T07:42:38.016Z,82.04
2018-03-03T07:43:37.980Z,81.85
2018-03-03T07:44:37.944Z,82.14
2018-03-03T07:45:37.910Z,82.14
2018-03-03T07:46:37.628Z,82.04
2018-03-03T07:47:37.843Z,82.14
2018-03-03T07:48:37.807Z,81.95
2018-03-03T07:49:37.774Z,82.14
2018-03-03T07:50:37.737Z,82.14
2018-03-03T07:51:37.459Z,81.85
2018-03-03T07:52:37.673Z,82.14
2018-03-03T07:53:37.640Z,82.23
2018-03-03T07:54:37.604Z,82.32
2018-03-03T07:55:37.574Z,82.14
2018-03-03T07:56:37.534Z,81.67
2018-03-03T07:57:37.504Z,81.85
2018-03-03T07:58:37.469Z,82.23
2018-03-03T07:59:37.436Z,81.67
2018-03-03T08:00:37.398Z,82.23
2018-03-03T08:01:37.369Z,81.57
2018-03-03T08:02:37.356Z,81.67
2018-03-03T08:03:37.300Z,81.76
2018-03-03T08:04:37.264Z,81.76
2018-03-03T08:05:36.985Z,81.61
2018-03-03T08:06:37.201Z,81.8
2018-03-03T08:07:37.165Z,81.42
2018-03-03T08:08:37.134Z,81.67
2018-03-03T08:09:37.096Z,81.9
2018-03-03T08:10:37.066Z,81.71
2018-03-03T08:11:37.032Z,81.71
2018-03-03T08:12:36.997Z,81.8
2018-03-03T08:13:36.970Z,81.42
2018-03-03T08:14:36.931Z,81.33
2018-03-03T08:15:36.896Z,81.52
2018-03-03T08:16:36.874Z,81.33
2018-03-03T08:17:36.835Z,81.33
2018-03-03T08:18:36.798Z,81.33
2018-03-03T08:19:36.761Z,81.61
2018-03-03T08:20:36.485Z,81.23
2018-03-03T08:21:36.697Z,80.66
2018-03-03T08:22:36.662Z,80.76
2018-03-03T08:23:36.632Z,80.95
2018-03-03T08:24:36.595Z,80.48
2018-03-03T08:25:36.566Z,80.29
2018-03-03T08:26:36.533Z,80.29
2018-03-03T08:27:36.498Z,80.38
2018-03-03T08:28:36.277Z,80.38
2018-03-03T08:29:36.462Z,80.29
2018-03-03T08:30:36.403Z,80.57
2018-03-03T08:31:36.369Z,80.1
2018-03-03T08:32:36.337Z,79.82
2018-03-03T08:33:36.301Z,80
2018-03-03T08:34:36.271Z,79.63
2018-03-03T08:35:36.239Z,79.53
2018-03-03T08:36:36.209Z,79.25
2018-03-03T08:37:36.174Z,79.16
2018-03-03T08:38:36.140Z,79.35
2018-03-03T08:39:36.120Z,79.72
2018-03-03T08:40:36.076Z,79.63
2018-03-03T08:41:36.043Z,79.35
2018-03-03T08:42:36.010Z,79.35
2018-03-03T08:43:35.980Z,79.06
2018-03-03T08:44:35.947Z,79.16
2018-03-03T08:45:35.914Z,78.97
2018-03-03T08:46:35.881Z,79.25
2018-03-03T08:47:35.848Z,78.78
2018-03-03T08:48:35.818Z,78.87
2018-03-03T08:49:35.791Z,78.68
2018-03-03T08:50:35.751Z,78.4
2018-03-03T08:51:35.478Z,78.5
2018-03-03T08:52:35.688Z,78.97
2018-03-03T08:53:35.653Z,78.21
2018-03-03T08:54:35.621Z,78.87
2018-03-03T08:55:35.591Z,78.68
2018-03-03T08:56:35.559Z,78.21
2018-03-03T08:57:35.524Z,78.4
2018-03-03T08:58:35.246Z,78.5
2018-03-03T08:59:35.461Z,78.68
2018-03-03T09:00:35.427Z,78.5
2018-03-03T09:01:35.400Z,78.31
2018-03-03T09:02:35.363Z,78.59
2018-03-03T09:03:35.335Z,78.5
2018-03-03T09:04:35.345Z,78.5
2018-03-03T09:05:35.264Z,78.4
2018-03-03T09:06:35.237Z,78.59
2018-03-03T09:07:35.202Z,78.02
2018-03-03T09:08:35.170Z,77.83
2018-03-03T09:09:34.889Z,78.12
2018-03-03T09:10:35.109Z,78.02
2018-03-03T09:11:35.081Z,78.12
2018-03-03T09:12:35.038Z,77.55
2018-03-03T09:13:34.759Z,77.64
2018-03-03T09:14:34.980Z,77.74
2018-03-03T09:15:34.698Z,77.55
2018-03-03T09:16:34.913Z,77.64
2018-03-03T09:17:34.633Z,77.55
2018-03-03T09:18:34.600Z,78.02
2018-03-03T09:19:34.815Z,77.83
2018-03-03T09:20:34.536Z,77.83
2018-03-03T09:21:34.752Z,77.83
2018-03-03T09:22:34.723Z,77.69
2018-03-03T09:23:34.689Z,77.59
2018-03-03T09:24:34.405Z,77.4
2018-03-03T09:25:34.623Z,77.4
2018-03-03T09:26:34.591Z,77.5
2018-03-03T09:27:34.562Z,76.83
2018-03-03T09:28:34.599Z,76.93
2018-03-03T09:29:34.498Z,77.02
2018-03-03T09:30:34.216Z,76.93
2018-03-03T09:31:34.430Z,76.83
2018-03-03T09:32:34.401Z,76.55
2018-03-03T09:33:34.376Z,76.64
2018-03-03T09:34:34.340Z,76.64
2018-03-03T09:35:34.344Z,76.55
2018-03-03T09:36:34.275Z,76.55
2018-03-03T09:37:34.247Z,76.64
2018-03-03T09:38:34.215Z,76.74
2018-03-03T09:39:34.192Z,77.02
2018-03-03T09:40:34.150Z,76.83
2018-03-03T09:41:34.281Z,76.26
2018-03-03T09:42:34.085Z,76.36
2018-03-03T09:43:34.054Z,76.36
2018-03-03T09:44:34.023Z,76.45
2018-03-03T09:45:33.742Z,76.17
2018-03-03T09:46:33.963Z,75.89
2018-03-03T09:47:33.932Z,75.7
2018-03-03T09:48:33.897Z,75.42
2018-03-03T09:49:33.868Z,75.79
2018-03-03T09:50:33.833Z,76.07
2018-03-03T09:51:33.804Z,75.98
2018-03-03T09:52:33.771Z,76.26
2018-03-03T09:53:33.742Z,75.89
2018-03-03T09:54:33.708Z,75.7
2018-03-03T09:55:33.680Z,76.07
2018-03-03T09:56:33.396Z,75.51
2018-03-03T09:57:33.364Z,75.6
2018-03-03T09:58:33.582Z,75.42
2018-03-03T09:59:33.550Z,75.51
2018-03-03T10:00:33.517Z,75.79
2018-03-03T10:01:33.690Z,75.7
2018-03-03T10:02:33.459Z,75.79
2018-03-03T10:03:33.426Z,75.7
2018-03-03T10:04:33.392Z,75.7
2018-03-03T10:05:33.358Z,75.7
2018-03-03T10:06:33.329Z,75.32
2018-03-03T10:07:33.297Z,75.7
2018-03-03T10:08:33.267Z,75.04
2018-03-03T10:09:33.310Z,75.13
2018-03-03T10:10:33.204Z,75.04
2018-03-03T10:11:33.171Z,74.95
2018-03-03T10:12:32.892Z,75.04
2018-03-03T10:13:32.859Z,75.23
2018-03-03T10:14:33.078Z,75.04
2018-03-03T10:15:32.796Z,75.23
2018-03-03T10:16:32.766Z,75.13
2018-03-03T10:17:32.991Z,75.23
2018-03-03T10:18:32.949Z,75.32
2018-03-03T10:19:32.669Z,74.95
2018-03-03T10:20:32.885Z,75.32
2018-03-03T10:21:32.855Z,75.13
2018-03-03T10:22:32.827Z,75.23
2018-03-03T10:23:32.792Z,75.42
2018-03-03T10:24:32.760Z,75.04
2018-03-03T10:25:32.735Z,75.13
2018-03-03T10:26:32.706Z,75.32
2018-03-03T10:27:33.555Z,75.13
2018-03-03T10:28:32.638Z,75.13
2018-03-03T10:29:32.613Z,75.13
2018-03-03T10:30:32.570Z,75.23
2018-03-03T10:31:32.554Z,75.23
2018-03-03T10:32:32.513Z,75.32
2018-03-03T10:33:32.476Z,75.13
2018-03-03T10:34:32.447Z,75.13
2018-03-03T10:35:32.416Z,75.13
2018-03-03T10:36:32.386Z,75.23
2018-03-03T10:37:32.111Z,75.23
2018-03-03T10:38:32.320Z,74.95
2018-03-03T10:39:32.288Z,75.32
2018-03-03T10:40:32.275Z,75.23
2018-03-03T10:41:32.226Z,74.76
2018-03-03T10:42:32.192Z,74.85
2018-03-03T10:43:32.163Z,74.76
2018-03-03T10:44:32.130Z,75.13
2018-03-03T10:45:32.100Z,74.76
2018-03-03T10:46:32.068Z,74.38
2018-03-03T10:47:32.036Z,74.38
2018-03-03T10:48:32.004Z,74.38
2018-03-03T10:49:31.969Z,74.38
2018-03-03T10:50:31.941Z,74.57
2018-03-03T10:51:31.912Z,74.38
2018-03-03T10:52:31.878Z,74
2018-03-03T10:53:31.849Z,74.57
2018-03-03T10:54:31.565Z,74
2018-03-03T10:55:31.783Z,74.47
2018-03-03T10:56:31.755Z,74.19
2018-03-03T10:57:31.718Z,74.09
2018-03-03T10:58:31.770Z,74
2018-03-03T10:59:31.407Z,74.09
2018-03-03T11:00:31.622Z,73.9
2018-03-03T11:01:31.596Z,73.9
2018-03-03T11:02:31.563Z,74.09
2018-03-03T11:03:31.527Z,73.9
2018-03-03T11:04:31.500Z,73.71
2018-03-03T11:05:31.220Z,73.62
2018-03-03T11:06:31.434Z,73.9
2018-03-03T11:07:31.402Z,73.62
2018-03-03T11:08:31.368Z,73.9
2018-03-03T11:09:31.478Z,73.9
2018-03-03T11:10:31.320Z,73.52
2018-03-03T11:11:31.282Z,73.43
2018-03-03T11:12:31.244Z,73.52
2018-03-03T11:13:31.453Z,73.43
2018-03-03T11:14:30.940Z,73.24
2018-03-03T11:15:31.487Z,73.52
2018-03-03T11:16:31.212Z,73.33
2018-03-03T11:17:30.838Z,73.14
2018-03-03T11:18:31.052Z,72.96
2018-03-03T11:19:31.022Z,72.9
2018-03-03T11:20:30.744Z,72.9
2018-03-03T11:21:30.958Z,73.28
2018-03-03T11:22:30.682Z,72.8
2018-03-03T11:23:30.900Z,72.99
2018-03-03T11:24:30.969Z,73.18
2018-03-03T11:25:30.839Z,73.18
2018-03-03T11:26:30.806Z,73.18
2018-03-03T11:27:30.778Z,73.09
2018-03-03T11:28:30.961Z,72.8
2018-03-03T11:29:30.819Z,72.43
2018-03-03T11:30:30.687Z,72.8
2018-03-03T11:31:30.652Z,72.8
2018-03-03T11:32:30.621Z,72.52
2018-03-03T11:33:30.588Z,72.62
2018-03-03T11:34:30.558Z,72.62
2018-03-03T11:35:30.536Z,72.14
2018-03-03T11:36:30.494Z,71.95
2018-03-03T11:37:30.472Z,71.86
2018-03-03T11:38:30.448Z,72.05
2018-03-03T11:39:30.457Z,71.95
2018-03-03T11:40:35.747Z,72.33
2018-03-03T11:41:30.346Z,71.86
2018-03-03T11:42:30.067Z,71.48
2018-03-03T11:43:30.286Z,72.05
2018-03-03T11:44:30.252Z,72.05
2018-03-03T11:45:30.225Z,72.33
2018-03-03T11:46:30.193Z,71.58
2018-03-03T11:47:30.179Z,71.77
2018-03-03T11:48:29.884Z,71.86
2018-03-03T11:49:30.105Z,71.58
2018-03-03T11:50:30.073Z,71.86
2018-03-03T11:51:30.041Z,71.67
2018-03-03T11:52:30.011Z,71.86
2018-03-03T11:53:29.978Z,71.77
2018-03-03T11:54:29.701Z,71.67
2018-03-03T11:55:29.670Z,71.67
2018-03-03T11:56:29.887Z,71.58
2018-03-03T11:57:29.859Z,71.67
2018-03-03T11:58:29.828Z,71.86
2018-03-03T11:59:29.797Z,71.2
2018-03-03T12:00:29.769Z,71.2
2018-03-03T12:01:29.736Z,71.11
2018-03-03T12:02:29.706Z,71.2
2018-03-03T12:03:29.680Z,71.3
2018-03-03T12:04:29.652Z,71.48
2018-03-03T12:05:29.618Z,71.3
2018-03-03T12:06:29.594Z,71.77
2018-03-03T12:07:29.555Z,71.95
2018-03-03T12:08:29.275Z,71.77
2018-03-03T12:09:29.244Z,71.11
2018-03-03T12:10:29.487Z,72.05
2018-03-03T12:11:29.449Z,71.3
2018-03-03T12:12:29.154Z,71.95
2018-03-03T12:13:29.121Z,71.86
2018-03-03T12:14:29.092Z,71.77
2018-03-03T12:15:29.067Z,71.67
2018-03-03T12:16:29.281Z,71.86
2018-03-03T12:17:29.250Z,71.48
2018-03-03T12:18:29.217Z,71.95
2018-03-03T12:19:28.940Z,71.86
2018-03-03T12:20:29.158Z,71.3
2018-03-03T12:21:29.127Z,71.3
2018-03-03T12:22:29.096Z,71.77
2018-03-03T12:23:29.071Z,71.86
2018-03-03T12:24:28.789Z,71.67
2018-03-03T12:25:29.005Z,71.11
2018-03-03T12:26:28.974Z,71.95
2018-03-03T12:27:28.943Z,71.86
2018-03-03T12:28:28.916Z,71.95
2018-03-03T12:29:28.636Z,71.95
2018-03-03T12:30:28.923Z,71.3
2018-03-03T12:31:28.824Z,71.2
2018-03-03T12:32:28.792Z,71.01
2018-03-03T12:33:28.761Z,70.73
2018-03-03T12:34:28.483Z,71.11
2018-03-03T12:35:28.702Z,70.92
2018-03-03T12:36:28.673Z,71.01
2018-03-03T12:37:28.644Z,70.73
2018-03-03T12:38:28.613Z,71.2
2018-03-03T12:39:28.332Z,70.92
2018-03-03T12:40:28.552Z,71.11
2018-03-03T12:41:28.530Z,71.11
2018-03-03T12:42:28.491Z,71.11
2018-03-03T12:43:28.460Z,71.11
2018-03-03T12:44:28.184Z,70.92
2018-03-03T12:45:28.403Z,70.82
2018-03-03T12:46:28.378Z,70.82
2018-03-03T12:47:28.346Z,71.2
2018-03-03T12:48:28.313Z,71.01
2018-03-03T12:49:28.285Z,71.11
2018-03-03T12:50:28.253Z,71.11
2018-03-03T12:51:28.220Z,71.11
2018-03-03T12:52:28.192Z,71.3
2018-03-03T12:53:27.915Z,70.92
2018-03-03T12:54:28.132Z,70.82
2018-03-03T12:55:28.115Z,71.11
2018-03-03T12:56:28.071Z,71.3